sensor_id;sensor_type;location;lat;lon;timestamp;pressure;altitude;pressure_sealevel;temperature;humidity
70952;BME280;69214;55.880;37.542;2023-05-11T00:00:08;99497.28;;;11.14;40.64
70952;BME280;69214;55.880;37.542;2023-05-11T00:02:37;99483.13;;;11.06;40.91
70952;BME280;69214;55.880;37.542;2023-05-11T00:05:03;99489.56;;;11.11;41.12
70952;BME280;69214;55.880;37.542;2023-05-11T00:07:29;99495.63;;;11.13;41.15
70952;BME280;69214;55.880;37.542;2023-05-11T00:09:55;99496.22;;;11.15;41.33
70952;BME280;69214;55.880;37.542;2023-05-11T00:12:21;99494.31;;;11.16;41.37
70952;BME280;69214;55.880;37.542;2023-05-11T00:14:46;99484.09;;;11.11;41.29
70952;BME280;69214;55.880;37.542;2023-05-11T00:17:12;99498.72;;;11.17;41.30
70952;BME280;69214;55.880;37.542;2023-05-11T00:19:38;99487.66;;;11.12;40.98
70952;BME280;69214;55.880;37.542;2023-05-11T00:22:03;99499.06;;;11.20;40.54
70952;BME280;69214;55.880;37.542;2023-05-11T00:24:29;99498.84;;;11.22;41.28
70952;BME280;69214;55.880;37.542;2023-05-11T00:26:55;99498.38;;;11.25;40.89
70952;BME280;69214;55.880;37.542;2023-05-11T00:29:21;99495.03;;;11.23;41.35
70952;BME280;69214;55.880;37.542;2023-05-11T00:31:46;99493.38;;;11.22;41.58
70952;BME280;69214;55.880;37.542;2023-05-11T00:34:16;99485.06;;;11.17;40.64
70952;BME280;69214;55.880;37.542;2023-05-11T00:36:43;99485.06;;;11.17;41.31
70952;BME280;69214;55.880;37.542;2023-05-11T00:39:09;99481.97;;;11.13;41.31
70952;BME280;69214;55.880;37.542;2023-05-11T00:41:37;99495.50;;;11.20;41.40
70952;BME280;69214;55.880;37.542;2023-05-11T00:44:03;99495.63;;;11.13;41.99
70952;BME280;69214;55.880;37.542;2023-05-11T00:46:29;99491.81;;;11.14;42.02
70952;BME280;69214;55.880;37.542;2023-05-11T00:48:55;99495.63;;;11.13;42.11
70952;BME280;69214;55.880;37.542;2023-05-11T00:51:21;99486.00;;;11.11;41.68
70952;BME280;69214;55.880;37.542;2023-05-11T00:53:48;99494.19;;;11.11;40.93
70952;BME280;69214;55.880;37.542;2023-05-11T00:56:14;99479.69;;;10.98;41.38
70952;BME280;69214;55.880;37.542;2023-05-11T00:58:39;99487.75;;;11.05;41.83
70952;BME280;69214;55.880;37.542;2023-05-11T01:01:05;99496.09;;;11.10;42.38
70952;BME280;69214;55.880;37.542;2023-05-11T01:03:31;99503.69;;;11.08;41.68
70952;BME280;69214;55.880;37.542;2023-05-11T01:08:54;99501.41;;;11.05;41.43
70952;BME280;69214;55.880;37.542;2023-05-11T01:14:03;99511.84;;;10.96;41.49
70952;BME280;69214;55.880;37.542;2023-05-11T01:16:34;99503.97;;;10.88;42.01
70952;BME280;69214;55.880;37.542;2023-05-11T01:19:11;99496.50;;;10.84;40.79
70952;BME280;69214;55.880;37.542;2023-05-11T01:21:41;99505.03;;;10.87;42.82
70952;BME280;69214;55.880;37.542;2023-05-11T01:32:26;99506.94;;;10.87;41.41
70952;BME280;69214;55.880;37.542;2023-05-11T01:35:07;99498.53;;;10.88;40.35
70952;BME280;69214;55.880;37.542;2023-05-11T01:37:37;99507.31;;;10.90;41.05
70952;BME280;69214;55.880;37.542;2023-05-11T01:40:12;99509.81;;;10.92;41.51
70952;BME280;69214;55.880;37.542;2023-05-11T01:42:50;99512.06;;;10.95;39.62
70952;BME280;69214;55.880;37.542;2023-05-11T01:45:19;99505.53;;;10.96;40.81
70952;BME280;69214;55.880;37.542;2023-05-11T01:47:47;99497.94;;;10.98;40.90
70952;BME280;69214;55.880;37.542;2023-05-11T01:50:16;99504.00;;;11.00;40.67
70952;BME280;69214;55.880;37.542;2023-05-11T01:52:45;99496.06;;;10.98;40.83
70952;BME280;69214;55.880;37.542;2023-05-11T01:55:12;99486.06;;;10.92;41.25
70952;BME280;69214;55.880;37.542;2023-05-11T01:57:42;99501.66;;;11.03;41.79
70952;BME280;69214;55.880;37.542;2023-05-11T02:00:08;99508.53;;;11.06;41.92
70952;BME280;69214;55.880;37.542;2023-05-11T02:02:41;99507.72;;;11.06;41.59
70952;BME280;69214;55.880;37.542;2023-05-11T02:05:10;99507.72;;;11.06;42.56
70952;BME280;69214;55.880;37.542;2023-05-11T02:07:41;99502.72;;;11.02;41.10
70952;BME280;69214;55.880;37.542;2023-05-11T02:10:08;99500.56;;;10.93;43.29
70952;BME280;69214;55.880;37.542;2023-05-11T02:12:35;99507.06;;;10.92;42.38
70952;BME280;69214;55.880;37.542;2023-05-11T02:15:03;99510.63;;;10.92;42.16
70952;BME280;69214;55.880;37.542;2023-05-11T02:17:33;99504.94;;;10.94;42.17
70952;BME280;69214;55.880;37.542;2023-05-11T02:20:01;99504.47;;;10.97;42.17
70952;BME280;69214;55.880;37.542;2023-05-11T02:22:29;99483.81;;;10.89;42.62
70952;BME280;69214;55.880;37.542;2023-05-11T02:24:56;99506.03;;;11.04;42.16
70952;BME280;69214;55.880;37.542;2023-05-11T02:27:23;99512.22;;;11.12;41.95
70952;BME280;69214;55.880;37.542;2023-05-11T02:29:49;99508.56;;;11.18;41.69
70952;BME280;69214;55.880;37.542;2023-05-11T02:32:17;99512.25;;;11.23;41.35
70952;BME280;69214;55.880;37.542;2023-05-11T02:34:49;99505.84;;;11.29;41.04
70952;BME280;69214;55.880;37.542;2023-05-11T02:37:22;99514.78;;;11.36;40.47
70952;BME280;69214;55.880;37.542;2023-05-11T02:40:03;99505.03;;;11.41;40.47
70952;BME280;69214;55.880;37.542;2023-05-11T02:42:36;99494.69;;;11.43;39.91
70952;BME280;69214;55.880;37.542;2023-05-11T02:45:06;99507.91;;;11.57;41.05
70952;BME280;69214;55.880;37.542;2023-05-11T02:47:46;99504.56;;;11.55;39.74
70952;BME280;69214;55.880;37.542;2023-05-11T02:50:18;99516.22;;;11.62;40.37
70952;BME280;69214;55.880;37.542;2023-05-11T02:52:46;99510.28;;;11.65;40.51
70952;BME280;69214;55.880;37.542;2023-05-11T02:55:14;99514.69;;;11.66;40.66
70952;BME280;69214;55.880;37.542;2023-05-11T02:57:42;99510.63;;;11.69;40.96
70952;BME280;69214;55.880;37.542;2023-05-11T03:00:09;99520.50;;;11.70;40.81
70952;BME280;69214;55.880;37.542;2023-05-11T03:02:35;99515.97;;;11.64;41.71
70952;BME280;69214;55.880;37.542;2023-05-11T03:05:02;99530.00;;;11.67;42.04
70952;BME280;69214;55.880;37.542;2023-05-11T03:07:30;99526.69;;;11.65;41.45
70952;BME280;69214;55.880;37.542;2023-05-11T03:09:57;99535.47;;;11.67;41.90
70952;BME280;69214;55.880;37.542;2023-05-11T03:12:22;99528.94;;;11.68;42.24
70952;BME280;69214;55.880;37.542;2023-05-11T03:14:49;99522.88;;;11.66;41.48
70952;BME280;69214;55.880;37.542;2023-05-11T03:17:17;99514.91;;;11.65;41.63
70952;BME280;69214;55.880;37.542;2023-05-11T03:19:44;99527.53;;;11.78;41.35
70952;BME280;69214;55.880;37.542;2023-05-11T03:22:10;99530.75;;;11.86;41.23
70952;BME280;69214;55.880;37.542;2023-05-11T03:24:37;99523.25;;;11.93;41.44
70952;BME280;69214;55.880;37.542;2023-05-11T03:27:04;99518.72;;;11.99;41.12
70952;BME280;69214;55.880;37.542;2023-05-11T03:29:31;99536.66;;;12.18;40.15
70952;BME280;69214;55.880;37.542;2023-05-11T03:31:59;99535.09;;;12.34;40.23
70952;BME280;69214;55.880;37.542;2023-05-11T03:34:25;99534.09;;;12.52;39.93
70952;BME280;69214;55.880;37.542;2023-05-11T03:36:52;99522.28;;;12.63;39.46
70952;BME280;69214;55.880;37.542;2023-05-11T03:39:21;99522.47;;;12.73;40.02
70952;BME280;69214;55.880;37.542;2023-05-11T03:41:49;99526.81;;;12.86;39.33
70952;BME280;69214;55.880;37.542;2023-05-11T03:44:16;99530.59;;;12.96;39.61
70952;BME280;69214;55.880;37.542;2023-05-11T03:46:48;99524.69;;;13.05;39.49
70952;BME280;69214;55.880;37.542;2023-05-11T03:49:18;99527.59;;;13.26;39.27
70952;BME280;69214;55.880;37.542;2023-05-11T03:51:45;99532.84;;;13.45;38.99
70952;BME280;69214;55.880;37.542;2023-05-11T03:54:11;99540.22;;;13.61;38.65
70952;BME280;69214;55.880;37.542;2023-05-11T03:56:38;99547.53;;;13.72;38.58
70952;BME280;69214;55.880;37.542;2023-05-11T03:59:04;99540.97;;;13.73;39.16
70952;BME280;69214;55.880;37.542;2023-05-11T04:01:31;99519.38;;;13.60;38.76
70952;BME280;69214;55.880;37.542;2023-05-11T04:03:57;99549.53;;;13.60;39.27
70952;BME280;69214;55.880;37.542;2023-05-11T04:06:22;99530.66;;;13.47;39.11
70952;BME280;69214;55.880;37.542;2023-05-11T04:09:20;99545.63;;;13.56;39.23
70952;BME280;69214;55.880;37.542;2023-05-11T04:11:46;99544.47;;;13.52;39.67
70952;BME280;69214;55.880;37.542;2023-05-11T04:14:11;99549.13;;;13.51;38.96
70952;BME280;69214;55.880;37.542;2023-05-11T04:16:37;99544.56;;;13.57;39.26
70952;BME280;69214;55.880;37.542;2023-05-11T04:19:03;99546.53;;;13.61;39.44
70952;BME280;69214;55.880;37.542;2023-05-11T04:21:29;99544.63;;;13.62;39.25
70952;BME280;69214;55.880;37.542;2023-05-11T04:23:55;99561.50;;;13.71;39.24
70952;BME280;69214;55.880;37.542;2023-05-11T04:26:20;99567.91;;;13.76;39.38
70952;BME280;69214;55.880;37.542;2023-05-11T04:28:46;99557.25;;;13.80;39.29
70952;BME280;69214;55.880;37.542;2023-05-11T04:31:12;99562.97;;;13.95;39.11
70952;BME280;69214;55.880;37.542;2023-05-11T04:33:38;99560.28;;;14.17;38.72
70952;BME280;69214;55.880;37.542;2023-05-11T04:36:04;99558.50;;;14.44;38.82
70952;BME280;69214;55.880;37.542;2023-05-11T04:38:30;99563.16;;;14.66;38.11
70952;BME280;69214;55.880;37.542;2023-05-11T04:40:56;99559.44;;;14.77;38.59
70952;BME280;69214;55.880;37.542;2023-05-11T04:43:22;99560.06;;;14.84;38.23
70952;BME280;69214;55.880;37.542;2023-05-11T04:45:49;99551.75;;;15.01;37.68
70952;BME280;69214;55.880;37.542;2023-05-11T04:48:19;99557.50;;;15.26;37.56
70952;BME280;69214;55.880;37.542;2023-05-11T04:50:45;99554.81;;;15.58;36.96
70952;BME280;69214;55.880;37.542;2023-05-11T04:53:12;99553.66;;;15.91;36.66
70952;BME280;69214;55.880;37.542;2023-05-11T04:55:38;99555.50;;;16.23;36.38
70952;BME280;69214;55.880;37.542;2023-05-11T04:58:04;99555.78;;;16.73;35.59
70952;BME280;69214;55.880;37.542;2023-05-11T05:00:29;99551.25;;;17.35;34.35
70952;BME280;69214;55.880;37.542;2023-05-11T05:02:55;99556.00;;;17.85;33.96
70952;BME280;69214;55.880;37.542;2023-05-11T05:05:21;99553.75;;;18.18;33.61
70952;BME280;69214;55.880;37.542;2023-05-11T05:07:47;99551.44;;;18.55;33.22
70952;BME280;69214;55.880;37.542;2023-05-11T05:10:12;99558.44;;;19.02;32.38
70952;BME280;69214;55.880;37.542;2023-05-11T05:13:00;99559.66;;;19.69;32.41
70952;BME280;69214;55.880;37.542;2023-05-11T05:15:26;99556.97;;;20.51;31.07
70952;BME280;69214;55.880;37.542;2023-05-11T05:17:52;99554.66;;;21.57;29.99
70952;BME280;69214;55.880;37.542;2023-05-11T05:20:18;99548.66;;;22.75;28.63
70952;BME280;69214;55.880;37.542;2023-05-11T05:22:45;99558.06;;;24.09;27.34
70952;BME280;69214;55.880;37.542;2023-05-11T05:25:10;99552.16;;;25.56;25.69
70952;BME280;69214;55.880;37.542;2023-05-11T05:27:36;99551.84;;;26.85;24.51
70952;BME280;69214;55.880;37.542;2023-05-11T05:30:06;99555.59;;;27.69;23.95
70952;BME280;69214;55.880;37.542;2023-05-11T05:32:32;99557.72;;;28.05;22.80
70952;BME280;69214;55.880;37.542;2023-05-11T05:34:58;99558.63;;;27.55;23.00
70952;BME280;69214;55.880;37.542;2023-05-11T05:37:24;99546.44;;;27.93;23.21
70952;BME280;69214;55.880;37.542;2023-05-11T05:39:50;99567.06;;;30.04;21.33
70952;BME280;69214;55.880;37.542;2023-05-11T05:42:15;99554.41;;;32.36;19.84
70952;BME280;69214;55.880;37.542;2023-05-11T05:44:41;99559.41;;;34.01;18.44
70952;BME280;69214;55.880;37.542;2023-05-11T05:47:07;99552.03;;;34.67;17.48
70952;BME280;69214;55.880;37.542;2023-05-11T05:49:36;99557.66;;;34.64;17.87
70952;BME280;69214;55.880;37.542;2023-05-11T05:52:03;99547.50;;;34.22;17.66
70952;BME280;69214;55.880;37.542;2023-05-11T05:54:30;99559.25;;;34.61;17.53
70952;BME280;69214;55.880;37.542;2023-05-11T05:56:56;99541.25;;;36.32;16.21
70952;BME280;69214;55.880;37.542;2023-05-11T05:59:25;99545.31;;;36.56;15.95
70952;BME280;69214;55.880;37.542;2023-05-11T06:01:54;99534.91;;;35.66;16.30
70952;BME280;69214;55.880;37.542;2023-05-11T06:04:22;99545.06;;;35.05;16.54
70952;BME280;69214;55.880;37.542;2023-05-11T06:06:48;99540.78;;;34.78;17.30
70952;BME280;69214;55.880;37.542;2023-05-11T06:09:14;99549.41;;;34.89;16.89
70952;BME280;69214;55.880;37.542;2023-05-11T06:11:40;99547.38;;;35.48;16.37
70952;BME280;69214;55.880;37.542;2023-05-11T06:14:07;99544.34;;;35.85;16.24
70952;BME280;69214;55.880;37.542;2023-05-11T06:16:33;99543.00;;;35.61;16.07
70952;BME280;69214;55.880;37.542;2023-05-11T06:18:58;99547.41;;;35.55;16.00
70952;BME280;69214;55.880;37.542;2023-05-11T06:21:25;99549.03;;;35.52;16.38
70952;BME280;69214;55.880;37.542;2023-05-11T06:23:51;99568.53;;;35.61;16.41
70952;BME280;69214;55.880;37.542;2023-05-11T06:26:17;99556.06;;;35.14;16.14
70952;BME280;69214;55.880;37.542;2023-05-11T06:28:42;99554.75;;;35.01;16.37
70952;BME280;69214;55.880;37.542;2023-05-11T06:31:12;99553.09;;;35.51;16.26
70952;BME280;69214;55.880;37.542;2023-05-11T06:33:40;99563.03;;;35.27;15.87
70952;BME280;69214;55.880;37.542;2023-05-11T06:36:13;99565.16;;;34.42;16.68
70952;BME280;69214;55.880;37.542;2023-05-11T06:38:38;99568.50;;;33.54;17.71
70952;BME280;69214;55.880;37.542;2023-05-11T06:41:06;99566.28;;;33.70;17.83
70952;BME280;69214;55.880;37.542;2023-05-11T06:43:34;99563.94;;;34.43;17.36
70952;BME280;69214;55.880;37.542;2023-05-11T06:46:01;99560.28;;;36.25;15.93
70952;BME280;69214;55.880;37.542;2023-05-11T06:48:27;99565.03;;;38.72;14.52
70952;BME280;69214;55.880;37.542;2023-05-11T06:50:57;99572.69;;;39.30;13.47
70952;BME280;69214;55.880;37.542;2023-05-11T06:53:23;99573.44;;;38.93;14.36
70952;BME280;69214;55.880;37.542;2023-05-11T06:55:49;99557.78;;;39.53;14.10
70952;BME280;69214;55.880;37.542;2023-05-11T06:58:15;99563.28;;;41.13;12.79
70952;BME280;69214;55.880;37.542;2023-05-11T07:00:41;99561.53;;;42.01;12.16
70952;BME280;69214;55.880;37.542;2023-05-11T07:03:07;99556.03;;;41.71;12.58
70952;BME280;69214;55.880;37.542;2023-05-11T07:05:34;99546.78;;;41.83;13.60
70952;BME280;69214;55.880;37.542;2023-05-11T07:08:00;99556.75;;;41.95;12.57
70952;BME280;69214;55.880;37.542;2023-05-11T07:10:26;99558.88;;;42.30;12.35
70952;BME280;69214;55.880;37.542;2023-05-11T07:12:51;99556.50;;;42.45;11.94
70952;BME280;69214;55.880;37.542;2023-05-11T07:15:17;99543.84;;;41.67;12.15
70952;BME280;69214;55.880;37.542;2023-05-11T07:17:43;99553.50;;;40.33;12.96
70952;BME280;69214;55.880;37.542;2023-05-11T07:20:12;99559.63;;;38.88;13.35
70952;BME280;69214;55.880;37.542;2023-05-11T07:22:38;99558.81;;;38.25;13.81
70952;BME280;69214;55.880;37.542;2023-05-11T07:25:04;99552.78;;;39.23;14.08
70952;BME280;69214;55.880;37.542;2023-05-11T07:27:30;99543.38;;;41.29;12.45
70952;BME280;69214;55.880;37.542;2023-05-11T07:29:57;99546.19;;;41.52;12.27
70952;BME280;69214;55.880;37.542;2023-05-11T07:32:23;99550.50;;;42.00;11.99
70952;BME280;69214;55.880;37.542;2023-05-11T07:34:48;99558.06;;;41.31;12.10
70952;BME280;69214;55.880;37.542;2023-05-11T07:37:14;99542.88;;;39.72;13.22
70952;BME280;69214;55.880;37.542;2023-05-11T07:39:40;99546.13;;;36.36;14.79
70952;BME280;69214;55.880;37.542;2023-05-11T07:42:05;99523.16;;;32.26;16.84
70952;BME280;69214;55.880;37.542;2023-05-11T07:44:31;99537.47;;;29.42;19.09
70952;BME280;69214;55.880;37.542;2023-05-11T07:46:57;99539.44;;;27.45;21.05
70952;BME280;69214;55.880;37.542;2023-05-11T07:49:23;99540.25;;;26.10;22.06
70952;BME280;69214;55.880;37.542;2023-05-11T07:51:49;99547.44;;;24.91;23.41
70952;BME280;69214;55.880;37.542;2023-05-11T07:54:16;99535.66;;;23.70;24.73
70952;BME280;69214;55.880;37.542;2023-05-11T07:56:42;99533.28;;;22.77;25.60
70952;BME280;69214;55.880;37.542;2023-05-11T07:59:07;99536.28;;;22.53;26.00
70952;BME280;69214;55.880;37.542;2023-05-11T08:01:33;99532.63;;;23.80;24.28
70952;BME280;69214;55.880;37.542;2023-05-11T08:03:59;99534.91;;;25.28;22.98
70952;BME280;69214;55.880;37.542;2023-05-11T08:06:25;99533.25;;;25.27;22.95
70952;BME280;69214;55.880;37.542;2023-05-11T08:08:52;99526.91;;;24.86;23.08
70952;BME280;69214;55.880;37.542;2023-05-11T08:11:18;99524.97;;;24.47;23.31
70952;BME280;69214;55.880;37.542;2023-05-11T08:13:43;99500.56;;;23.91;23.58
70952;BME280;69214;55.880;37.542;2023-05-11T08:16:09;99522.97;;;23.41;24.37
70952;BME280;69214;55.880;37.542;2023-05-11T08:18:35;99525.34;;;22.71;24.87
70952;BME280;69214;55.880;37.542;2023-05-11T08:21:01;99494.44;;;22.04;25.33
70952;BME280;69214;55.880;37.542;2023-05-11T08:23:26;99507.97;;;21.91;25.57
70952;BME280;69214;55.880;37.542;2023-05-11T08:25:54;99510.47;;;21.60;25.71
70952;BME280;69214;55.880;37.542;2023-05-11T08:28:20;99522.81;;;21.36;26.25
70952;BME280;69214;55.880;37.542;2023-05-11T08:30:53;99526.94;;;21.38;25.48
70952;BME280;69214;55.880;37.542;2023-05-11T08:33:19;99516.31;;;21.21;26.64
70952;BME280;69214;55.880;37.542;2023-05-11T08:35:45;99531.94;;;21.36;26.89
70952;BME280;69214;55.880;37.542;2023-05-11T08:38:13;99513.72;;;21.30;26.06
70952;BME280;69214;55.880;37.542;2023-05-11T08:40:39;99513.31;;;21.18;26.65
70952;BME280;69214;55.880;37.542;2023-05-11T08:43:16;99524.19;;;20.95;25.71
70952;BME280;69214;55.880;37.542;2023-05-11T08:45:44;99522.25;;;20.77;26.88
70952;BME280;69214;55.880;37.542;2023-05-11T08:48:15;99510.03;;;20.78;26.49
70952;BME280;69214;55.880;37.542;2023-05-11T08:50:46;99497.59;;;20.76;27.00
70952;BME280;69214;55.880;37.542;2023-05-11T08:53:12;99493.13;;;20.56;27.34
70952;BME280;69214;55.880;37.542;2023-05-11T08:55:39;99498.16;;;20.54;27.73
70952;BME280;69214;55.880;37.542;2023-05-11T08:58:06;99504.88;;;20.48;27.53
70952;BME280;69214;55.880;37.542;2023-05-11T09:00:33;99505.25;;;20.12;27.72
70952;BME280;69214;55.880;37.542;2023-05-11T09:02:59;99499.19;;;19.81;28.11
70952;BME280;69214;55.880;37.542;2023-05-11T09:05:26;99508.91;;;19.45;28.53
70952;BME280;69214;55.880;37.542;2023-05-11T09:08:01;99514.19;;;19.02;28.11
70952;BME280;69214;55.880;37.542;2023-05-11T09:10:28;99508.59;;;18.63;30.21
70952;BME280;69214;55.880;37.542;2023-05-11T09:12:54;99514.44;;;18.46;30.28
70952;BME280;69214;55.880;37.542;2023-05-11T09:15:20;99514.75;;;18.34;30.57
70952;BME280;69214;55.880;37.542;2023-05-11T09:17:46;99499.88;;;18.20;30.53
70952;BME280;69214;55.880;37.542;2023-05-11T09:20:11;99513.13;;;18.18;30.83
70952;BME280;69214;55.880;37.542;2023-05-11T09:22:44;99499.59;;;18.17;29.64
70952;BME280;69214;55.880;37.542;2023-05-11T09:25:12;99502.06;;;18.28;30.15
70952;BME280;69214;55.880;37.542;2023-05-11T09:27:43;99504.53;;;18.35;30.61
70952;BME280;69214;55.880;37.542;2023-05-11T09:30:17;99495.16;;;18.31;29.19
70952;BME280;69214;55.880;37.542;2023-05-11T09:32:50;99492.66;;;18.34;29.35
70952;BME280;69214;55.880;37.542;2023-05-11T09:35:27;99493.75;;;18.33;30.40
70952;BME280;69214;55.880;37.542;2023-05-11T09:40:30;99501.94;;;18.59;30.55
70952;BME280;69214;55.880;37.542;2023-05-11T09:42:57;99475.34;;;18.78;30.52
70952;BME280;69214;55.880;37.542;2023-05-11T09:45:43;99476.72;;;19.20;28.17
70952;BME280;69214;55.880;37.542;2023-05-11T09:50:41;99457.16;;;20.03;29.06
70952;BME280;69214;55.880;37.542;2023-05-11T09:53:07;99433.34;;;20.02;29.27
70952;BME280;69214;55.880;37.542;2023-05-11T09:55:33;99462.81;;;20.41;28.71
70952;BME280;69214;55.880;37.542;2023-05-11T09:57:59;99448.31;;;20.49;29.41
70952;BME280;69214;55.880;37.542;2023-05-11T10:00:25;99454.16;;;20.47;28.70
70952;BME280;69214;55.880;37.542;2023-05-11T10:03:06;99441.34;;;20.27;27.67
70952;BME280;69214;55.880;37.542;2023-05-11T10:05:34;99423.44;;;19.96;28.02
70952;BME280;69214;55.880;37.542;2023-05-11T10:08:04;99434.41;;;19.53;28.60
70952;BME280;69214;55.880;37.542;2023-05-11T10:10:32;99443.06;;;19.07;29.83
70952;BME280;69214;55.880;37.542;2023-05-11T10:12:59;99437.78;;;18.67;30.41
70952;BME280;69214;55.880;37.542;2023-05-11T10:15:27;99448.41;;;18.39;30.96
70952;BME280;69214;55.880;37.542;2023-05-11T10:17:54;99433.25;;;18.32;31.01
70952;BME280;69214;55.880;37.542;2023-05-11T10:20:20;99425.50;;;18.34;30.62
70952;BME280;69214;55.880;37.542;2023-05-11T10:22:46;99435.38;;;18.50;30.72
70952;BME280;69214;55.880;37.542;2023-05-11T10:25:15;99445.25;;;18.71;29.29
70952;BME280;69214;55.880;37.542;2023-05-11T10:27:41;99422.25;;;18.76;30.01
70952;BME280;69214;55.880;37.542;2023-05-11T10:30:09;99442.91;;;18.89;28.97
70952;BME280;69214;55.880;37.542;2023-05-11T10:32:35;99433.78;;;18.88;29.07
70952;BME280;69214;55.880;37.542;2023-05-11T10:35:03;99432.47;;;18.81;28.79
70952;BME280;69214;55.880;37.542;2023-05-11T10:37:29;99425.84;;;18.76;29.62
70952;BME280;69214;55.880;37.542;2023-05-11T10:39:56;99413.97;;;18.76;29.09
70952;BME280;69214;55.880;37.542;2023-05-11T10:50:51;99414.91;;;20.35;27.29
70952;BME280;69214;55.880;37.542;2023-05-11T11:01:42;99428.00;;;19.58;29.16
70952;BME280;69214;55.880;37.542;2023-05-11T11:04:12;99426.63;;;19.21;30.03
70952;BME280;69214;55.880;37.542;2023-05-11T11:06:42;99436.44;;;18.64;31.19
70952;BME280;69214;55.880;37.542;2023-05-11T11:09:14;99448.75;;;18.23;31.04
70952;BME280;69214;55.880;37.542;2023-05-11T11:11:45;99437.00;;;17.87;31.33
70952;BME280;69214;55.880;37.542;2023-05-11T11:14:13;99445.03;;;17.83;31.78
70952;BME280;69214;55.880;37.542;2023-05-11T11:16:40;99444.75;;;17.85;32.22
70952;BME280;69214;55.880;37.542;2023-05-11T11:22:04;99455.22;;;17.88;30.67
70952;BME280;69214;55.880;37.542;2023-05-11T11:27:06;99462.69;;;17.82;31.64
70952;BME280;69214;55.880;37.542;2023-05-11T11:29:37;99483.97;;;17.71;31.54
70952;BME280;69214;55.880;37.542;2023-05-11T11:34:47;99510.66;;;17.05;36.42
70952;BME280;69214;55.880;37.542;2023-05-11T11:37:17;99517.13;;;16.58;35.18
70952;BME280;69214;55.880;37.542;2023-05-11T11:42:32;99534.53;;;15.74;34.91
70952;BME280;69214;55.880;37.542;2023-05-11T11:45:29;99544.63;;;15.59;34.39
70952;BME280;69214;55.880;37.542;2023-05-11T11:48:39;99539.50;;;15.40;37.85
70952;BME280;69214;55.880;37.542;2023-05-11T11:51:05;99525.00;;;15.18;39.43
70952;BME280;69214;55.880;37.542;2023-05-11T12:01:08;99512.75;;;15.04;42.92
70952;BME280;69214;55.880;37.542;2023-05-11T12:03:37;99524.78;;;15.25;45.97
70952;BME280;69214;55.880;37.542;2023-05-11T12:06:07;99522.47;;;15.43;41.67
70952;BME280;69214;55.880;37.542;2023-05-11T12:08:34;99527.34;;;15.68;45.38
70952;BME280;69214;55.880;37.542;2023-05-11T12:11:01;99517.34;;;15.94;44.42
70952;BME280;69214;55.880;37.542;2023-05-11T12:13:28;99512.28;;;16.23;44.38
70952;BME280;69214;55.880;37.542;2023-05-11T12:18:37;99500.09;;;16.66;41.09
70952;BME280;69214;55.880;37.542;2023-05-11T12:21:04;99499.56;;;16.69;41.14
70952;BME280;69214;55.880;37.542;2023-05-11T12:23:30;99496.25;;;16.67;42.32
70952;BME280;69214;55.880;37.542;2023-05-11T12:26:05;99497.28;;;16.61;38.75
70952;BME280;69214;55.880;37.542;2023-05-11T12:28:32;99495.84;;;16.43;41.12
70952;BME280;69214;55.880;37.542;2023-05-11T12:30:58;99467.63;;;16.11;42.48
70952;BME280;69214;55.880;37.542;2023-05-11T12:33:24;99484.88;;;15.96;43.54
70952;BME280;69214;55.880;37.542;2023-05-11T12:35:54;99478.72;;;15.79;40.59
70952;BME280;69214;55.880;37.542;2023-05-11T12:38:21;99470.63;;;15.62;43.58
70952;BME280;69214;55.880;37.542;2023-05-11T12:40:51;99473.59;;;15.55;40.44
70952;BME280;69214;55.880;37.542;2023-05-11T12:43:21;99475.22;;;15.51;40.75
70952;BME280;69214;55.880;37.542;2023-05-11T12:45:47;99473.88;;;15.54;43.53
70952;BME280;69214;55.880;37.542;2023-05-11T12:48:13;99462.59;;;15.55;44.12
70952;BME280;69214;55.880;37.542;2023-05-11T12:50:45;99462.94;;;15.64;40.97
70952;BME280;69214;55.880;37.542;2023-05-11T12:53:17;99437.53;;;15.47;40.11
70952;BME280;69214;55.880;37.542;2023-05-11T12:55:56;99449.88;;;15.44;39.35
70952;BME280;69214;55.880;37.542;2023-05-11T12:58:23;99430.97;;;15.16;44.12
70952;BME280;69214;55.880;37.542;2023-05-11T13:00:56;99462.06;;;15.21;40.45
70952;BME280;69214;55.880;37.542;2023-05-11T13:03:27;99462.25;;;15.10;42.25
70952;BME280;69214;55.880;37.542;2023-05-11T13:06:06;99458.34;;;15.06;39.76
70952;BME280;69214;55.880;37.542;2023-05-11T13:08:33;99461.50;;;15.19;42.92
70952;BME280;69214;55.880;37.542;2023-05-11T13:11:21;99466.81;;;15.31;39.49
70952;BME280;69214;55.880;37.542;2023-05-11T13:13:49;99464.16;;;15.41;41.90
70952;BME280;69214;55.880;37.542;2023-05-11T13:16:26;99464.78;;;15.53;39.07
70952;BME280;69214;55.880;37.542;2023-05-11T13:18:59;99449.72;;;15.61;39.56
70952;BME280;69214;55.880;37.542;2023-05-11T13:21:26;99455.59;;;15.75;42.76
70952;BME280;69214;55.880;37.542;2023-05-11T13:23:54;99452.63;;;15.86;42.71
70952;BME280;69214;55.880;37.542;2023-05-11T13:26:24;99454.63;;;16.01;39.97
70952;BME280;69214;55.880;37.542;2023-05-11T13:28:51;99440.34;;;16.09;42.04
70952;BME280;69214;55.880;37.542;2023-05-11T13:31:17;99437.09;;;16.17;42.38
70952;BME280;69214;55.880;37.542;2023-05-11T13:33:49;99434.41;;;16.33;40.54
70952;BME280;69214;55.880;37.542;2023-05-11T13:36:15;99441.88;;;16.47;41.07
70952;BME280;69214;55.880;37.542;2023-05-11T13:38:41;99431.72;;;16.58;41.19
70952;BME280;69214;55.880;37.542;2023-05-11T13:41:06;99428.16;;;16.63;41.34
70952;BME280;69214;55.880;37.542;2023-05-11T13:43:32;99429.50;;;16.60;41.41
70952;BME280;69214;55.880;37.542;2023-05-11T13:45:58;99428.41;;;16.56;41.39
70952;BME280;69214;55.880;37.542;2023-05-11T13:48:23;99419.03;;;16.57;41.57
70952;BME280;69214;55.880;37.542;2023-05-11T13:50:49;99413.28;;;16.64;41.07